Time;durP1;ratioP1;P1;durP2;ratioP2;P2;SDS_P1;SDS_P2;PMS_P1;PMS_P2;Temp;Humidity;BMP_temperature;BMP_pressure;BME280_temperature;BME280_humidity;BME280_pressure;Samples;Min_cycle;Max_cycle;Signal;HPM_P1;HPM_P2
2022/02/12 00:00:44;;;;;;;9.07;3.03;;;6.50;99.90;;;;;;5078108;28;20198;-69
2022/02/12 00:03:11;;;;;;;6.33;2.97;;;6.50;99.90;;;;;;5075287;28;20191;-69
2022/02/12 00:05:37;;;;;;;9.57;3.10;;;6.40;99.90;;;;;;5062231;28;20201;-69
2022/02/12 00:08:04;;;;;;;4.47;3.00;;;6.40;99.90;;;;;;5071699;28;20547;-69
2022/02/12 00:10:31;;;;;;;4.27;3.37;;;6.40;99.90;;;;;;5056674;28;20195;-69
2022/02/12 00:12:58;;;;;;;4.37;2.83;;;6.40;99.90;;;;;;5073051;28;20329;-69
2022/02/12 00:15:26;;;;;;;5.53;2.90;;;6.40;99.90;;;;;;5073370;28;20222;-69
2022/02/12 00:17:54;;;;;;;5.03;3.00;;;6.40;99.90;;;;;;5071270;28;20204;-69
2022/02/12 00:20:20;;;;;;;4.07;2.77;;;6.40;99.90;;;;;;5068837;28;20258;-69
2022/02/12 00:22:46;;;;;;;8.97;3.17;;;6.40;99.90;;;;;;5064664;28;20191;-69
2022/02/12 00:25:12;;;;;;;6.40;3.40;;;6.40;99.90;;;;;;5053734;28;20210;-69
2022/02/12 00:27:39;;;;;;;4.17;3.00;;;6.40;99.90;;;;;;5079030;28;20186;-69
2022/02/12 00:30:06;;;;;;;5.83;3.30;;;6.40;99.90;;;;;;5070895;28;20921;-69
2022/02/12 00:32:33;;;;;;;4.73;3.00;;;6.30;99.90;;;;;;5068795;28;20245;-68
2022/02/12 00:34:59;;;;;;;7.53;3.27;;;6.30;99.90;;;;;;5077050;28;20292;-68
2022/02/12 00:37:28;;;;;;;9.37;3.80;;;6.30;99.90;;;;;;5089455;28;20195;-69
2022/02/12 00:39:55;;;;;;;4.73;3.33;;;6.40;99.90;;;;;;5071422;28;20250;-69
2022/02/12 00:42:22;;;;;;;5.80;2.70;;;6.40;99.90;;;;;;5072626;28;20205;-69
2022/02/12 00:44:49;;;;;;;4.93;3.10;;;6.40;99.90;;;;;;5079339;28;20207;-68
2022/02/12 00:47:16;;;;;;;4.87;3.73;;;6.40;99.90;;;;;;5067747;28;20214;-69
2022/02/12 00:49:42;;;;;;;5.43;3.60;;;6.40;99.90;;;;;;5080634;28;20183;-69
2022/02/12 00:52:08;;;;;;;3.77;3.30;;;6.40;99.90;;;;;;5074060;28;20194;-69
2022/02/12 00:54:37;;;;;;;6.90;3.17;;;6.50;99.90;;;;;;5070005;28;20712;-69
2022/02/12 00:57:05;;;;;;;7.87;3.13;;;6.50;99.90;;;;;;5073765;28;20193;-68
2022/02/12 00:59:31;;;;;;;6.07;3.43;;;6.50;99.90;;;;;;5080937;28;20255;-69
2022/02/12 01:01:57;;;;;;;3.80;3.40;;;6.50;99.90;;;;;;5082139;28;20190;-69
2022/02/12 01:04:23;;;;;;;6.13;3.20;;;6.50;99.90;;;;;;5069672;28;20178;-69
2022/02/12 01:06:50;;;;;;;4.97;3.67;;;6.50;99.90;;;;;;5073814;28;20248;-68
2022/02/12 01:09:16;;;;;;;5.60;3.40;;;6.60;99.90;;;;;;5078193;28;20782;-68
2022/02/12 01:11:43;;;;;;;6.43;3.20;;;6.60;99.90;;;;;;5073255;28;20562;-69
2022/02/12 01:14:10;;;;;;;5.77;3.90;;;6.60;99.90;;;;;;5083613;28;20194;-68
2022/02/12 01:16:36;;;;;;;6.27;3.73;;;6.70;99.90;;;;;;5076248;28;20186;-69
2022/02/12 01:19:03;;;;;;;9.83;3.87;;;6.70;99.90;;;;;;5077826;28;20970;-69
2022/02/12 01:21:30;;;;;;;6.23;3.33;;;6.70;99.90;;;;;;5073073;28;20214;-69
2022/02/12 01:23:56;;;;;;;7.63;4.00;;;6.70;99.90;;;;;;5068217;28;20336;-69
2022/02/12 01:26:24;;;;;;;7.13;4.23;;;6.80;99.90;;;;;;5080860;28;20576;-69
2022/02/12 01:28:50;;;;;;;5.30;3.70;;;6.80;99.90;;;;;;5075049;28;20298;-69
2022/02/12 01:31:17;;;;;;;4.53;3.60;;;6.80;99.90;;;;;;5056653;28;20255;-69
2022/02/12 01:33:43;;;;;;;10.07;4.27;;;6.90;99.90;;;;;;5076763;28;20268;-68
2022/02/12 01:36:10;;;;;;;4.83;3.67;;;6.90;99.90;;;;;;5078205;28;20202;-69
2022/02/12 01:38:36;;;;;;;7.53;4.00;;;6.90;99.90;;;;;;5068954;28;20199;-69
2022/02/12 01:41:03;;;;;;;9.23;4.43;;;6.90;99.90;;;;;;5069991;28;20210;-69
2022/02/12 01:43:29;;;;;;;8.90;4.50;;;6.90;99.90;;;;;;5074102;28;20228;-69
2022/02/12 01:45:55;;;;;;;13.80;5.57;;;6.90;99.90;;;;;;5077998;28;20182;-69
2022/02/12 01:48:21;;;;;;;20.97;10.27;;;7.00;99.90;;;;;;5055333;28;20714;-69
2022/02/12 01:50:51;;;;;;;24.13;10.77;;;7.00;99.90;;;;;;5068727;28;20191;-69
2022/02/12 01:53:21;;;;;;;11.77;7.70;;;7.00;99.90;;;;;;5072350;28;20195;-69
2022/02/12 01:55:48;;;;;;;12.07;5.73;;;7.00;99.90;;;;;;5068287;28;20297;-69
2022/02/12 01:58:16;;;;;;;9.63;5.20;;;7.00;99.90;;;;;;5083416;28;20221;-69
2022/02/12 02:00:43;;;;;;;12.57;5.13;;;7.00;99.90;;;;;;5072539;28;20214;-69
2022/02/12 02:03:10;;;;;;;10.10;4.73;;;7.00;99.90;;;;;;5082526;28;20186;-69
2022/02/12 02:05:36;;;;;;;7.70;4.47;;;7.00;99.90;;;;;;5083853;28;20186;-69
2022/02/12 02:08:03;;;;;;;5.23;4.10;;;7.00;99.90;;;;;;5078406;28;20197;-69
2022/02/12 02:10:30;;;;;;;10.27;6.33;;;7.00;99.90;;;;;;5085324;28;20659;-69
2022/02/12 02:12:56;;;;;;;9.57;4.73;;;7.00;99.90;;;;;;5082520;28;20269;-69
2022/02/12 02:15:23;;;;;;;5.80;4.20;;;7.00;99.90;;;;;;5063894;28;20195;-69
2022/02/12 02:17:49;;;;;;;7.83;5.10;;;7.00;99.90;;;;;;5064138;28;20197;-68
2022/02/12 02:20:16;;;;;;;8.53;4.00;;;7.00;99.90;;;;;;5078327;28;20210;-69
2022/02/12 02:22:53;;;;;;;7.27;4.30;;;7.00;99.90;;;;;;5078734;28;20186;-69
2022/02/12 02:25:20;;;;;;;10.47;4.73;;;7.00;99.90;;;;;;5070927;28;20198;-69
2022/02/12 02:27:47;;;;;;;6.20;4.30;;;7.00;99.90;;;;;;5074016;28;20187;-70
2022/02/12 02:30:21;;;;;;;8.77;4.70;;;7.00;99.90;;;;;;5079974;28;20624;-68
2022/02/12 02:32:48;;;;;;;4.97;4.30;;;7.00;99.90;;;;;;5094180;28;20217;-69
2022/02/12 02:35:18;;;;;;;7.63;4.23;;;7.00;99.90;;;;;;5078031;28;20190;-69
2022/02/12 02:37:45;;;;;;;6.80;4.00;;;7.00;99.90;;;;;;5077237;28;20178;-69
2022/02/12 02:40:21;;;;;;;6.00;4.27;;;7.00;99.90;;;;;;5076554;28;20206;-69
2022/02/12 02:42:50;;;;;;;5.97;3.90;;;7.00;99.90;;;;;;5070353;28;20769;-69
2022/02/12 02:45:18;;;;;;;4.67;3.80;;;7.00;99.90;;;;;;5078592;28;20221;-69
2022/02/12 02:47:44;;;;;;;7.97;3.87;;;7.00;99.90;;;;;;5080413;28;20192;-69
2022/02/12 02:56:04;;;;;;;6.30;3.53;;;6.90;99.90;;;;;;5080047;28;20819;-69
2022/02/12 02:58:40;;;;;;;6.43;3.80;;;6.90;99.90;;;;;;5077041;28;20709;-69
2022/02/12 03:01:15;;;;;;;7.00;3.50;;;6.90;99.90;;;;;;5075912;28;20325;-69
2022/02/12 03:03:44;;;;;;;5.37;3.67;;;6.80;99.90;;;;;;5078497;28;20236;-69
2022/02/12 03:06:13;;;;;;;6.00;3.70;;;6.80;99.90;;;;;;5071415;28;20186;-69
2022/02/12 03:08:40;;;;;;;6.60;3.80;;;6.80;99.90;;;;;;5074302;28;20240;-69
2022/02/12 03:11:09;;;;;;;5.37;3.90;;;6.80;99.90;;;;;;5079902;28;20201;-69
2022/02/12 03:13:35;;;;;;;4.80;4.13;;;6.80;99.90;;;;;;5064323;28;20218;-69
2022/02/12 03:16:02;;;;;;;6.97;4.30;;;6.80;99.90;;;;;;5071793;28;20583;-69
2022/02/12 03:18:29;;;;;;;5.80;4.00;;;6.80;99.90;;;;;;5081866;28;20182;-69
2022/02/12 03:20:56;;;;;;;9.00;3.90;;;6.90;99.90;;;;;;5078809;28;20232;-69
2022/02/12 03:23:22;;;;;;;5.93;3.40;;;6.80;99.90;;;;;;5072365;28;20692;-69
2022/02/12 03:25:49;;;;;;;4.97;3.90;;;6.80;99.90;;;;;;5073947;28;20194;-69
2022/02/12 03:28:15;;;;;;;6.10;4.27;;;6.90;99.90;;;;;;5072623;28;20186;-69
2022/02/12 03:30:48;;;;;;;7.47;3.97;;;6.90;99.90;;;;;;5076347;28;20186;-69
2022/02/12 03:33:16;;;;;;;5.50;3.80;;;6.80;99.90;;;;;;5066683;28;21023;-69
2022/02/12 03:35:43;;;;;;;4.33;3.73;;;6.80;99.90;;;;;;5080365;28;21017;-69
2022/02/12 03:38:13;;;;;;;9.23;3.80;;;6.80;99.90;;;;;;5070208;28;20201;-69
2022/02/12 03:40:46;;;;;;;5.67;3.47;;;6.90;99.90;;;;;;5066431;28;20245;-69
2022/02/12 03:43:14;;;;;;;4.93;3.53;;;6.90;99.90;;;;;;5066749;28;20206;-69
2022/02/12 03:45:42;;;;;;;5.63;4.10;;;6.80;99.90;;;;;;5076698;28;20211;-69
2022/02/12 03:48:08;;;;;;;8.53;3.63;;;6.90;99.90;;;;;;5081242;28;20267;-69
2022/02/12 03:50:36;;;;;;;5.00;3.63;;;6.90;99.90;;;;;;5074757;28;20192;-69
2022/02/12 03:53:05;;;;;;;6.87;3.90;;;6.90;99.90;;;;;;5080865;28;20237;-69
2022/02/12 03:55:36;;;;;;;4.20;3.47;;;6.80;99.90;;;;;;5060953;28;20190;-69
2022/02/12 03:58:09;;;;;;;5.70;3.63;;;6.90;99.90;;;;;;5074856;28;20186;-69
2022/02/12 04:00:37;;;;;;;4.60;3.60;;;6.80;99.90;;;;;;5064075;28;21052;-69
2022/02/12 04:03:04;;;;;;;5.10;3.97;;;6.80;99.90;;;;;;5069442;28;20218;-69
2022/02/12 04:05:31;;;;;;;4.37;3.60;;;6.80;99.90;;;;;;5078175;28;20229;-68
2022/02/12 04:07:59;;;;;;;7.63;4.03;;;6.80;99.90;;;;;;5076195;28;20213;-69
2022/02/12 04:10:26;;;;;;;10.73;4.73;;;6.80;99.90;;;;;;5069376;28;20191;-68
2022/02/12 04:12:53;;;;;;;6.97;4.10;;;6.80;99.90;;;;;;5079753;28;20186;-68
2022/02/12 04:15:22;;;;;;;5.17;3.43;;;6.80;99.90;;;;;;5080897;28;20198;-69
2022/02/12 04:17:50;;;;;;;4.87;3.60;;;6.80;99.90;;;;;;5086097;28;20267;-69
2022/02/12 04:20:19;;;;;;;5.90;3.80;;;6.80;99.90;;;;;;5094262;28;20265;-69
2022/02/12 04:22:46;;;;;;;4.70;3.70;;;6.80;99.90;;;;;;5084826;28;20190;-68
2022/02/12 04:25:18;;;;;;;5.77;3.93;;;6.80;99.90;;;;;;5083212;28;20186;-69
2022/02/12 04:27:45;;;;;;;6.67;4.00;;;6.70;99.90;;;;;;5050377;28;20679;-68
2022/02/12 04:30:13;;;;;;;4.80;3.67;;;6.80;99.90;;;;;;5069414;28;20224;-68
2022/02/12 04:32:43;;;;;;;7.67;3.83;;;6.80;99.90;;;;;;5077268;28;20242;-69
2022/02/12 04:35:13;;;;;;;6.70;4.00;;;6.70;99.90;;;;;;5075043;28;20296;-69
2022/02/12 04:37:40;;;;;;;4.37;3.83;;;6.70;99.90;;;;;;5081230;28;20194;-69
2022/02/12 04:40:07;;;;;;;4.43;3.63;;;6.80;99.90;;;;;;5081921;28;20996;-69
2022/02/12 04:42:34;;;;;;;9.00;3.53;;;6.80;99.90;;;;;;5067851;28;20201;-68
2022/02/12 04:45:01;;;;;;;9.27;3.73;;;6.80;99.90;;;;;;5073775;28;20204;-69
2022/02/12 04:47:29;;;;;;;5.40;3.73;;;6.80;99.90;;;;;;5078334;28;20674;-69
2022/02/12 04:49:56;;;;;;;7.03;4.50;;;6.80;99.90;;;;;;5093312;28;20205;-69
2022/02/12 04:52:23;;;;;;;7.93;4.17;;;6.80;99.90;;;;;;5070476;28;20646;-69
2022/02/12 04:54:50;;;;;;;6.40;3.67;;;6.80;99.90;;;;;;5078620;28;20186;-69
2022/02/12 04:57:17;;;;;;;6.30;4.07;;;6.80;99.90;;;;;;5072445;28;20474;-69
2022/02/12 04:59:44;;;;;;;8.07;3.77;;;6.80;99.90;;;;;;5084249;28;20174;-69
2022/02/12 05:02:10;;;;;;;6.00;4.00;;;6.80;99.90;;;;;;5065523;28;20209;-69
2022/02/12 05:04:37;;;;;;;5.07;4.03;;;6.80;99.90;;;;;;5083734;28;20725;-69
2022/02/12 05:07:03;;;;;;;6.07;4.00;;;6.80;99.90;;;;;;5074561;28;20843;-69
2022/02/12 05:09:34;;;;;;;8.47;4.07;;;6.80;99.90;;;;;;5081791;28;20197;-69
2022/02/12 05:12:03;;;;;;;6.37;4.03;;;6.80;99.90;;;;;;5070192;28;20194;-69
2022/02/12 05:14:31;;;;;;;6.93;4.07;;;6.90;99.90;;;;;;5076615;28;20190;-69
2022/02/12 05:16:59;;;;;;;8.57;3.60;;;6.90;99.90;;;;;;5073286;28;20190;-69
2022/02/12 05:19:26;;;;;;;5.17;3.60;;;6.90;99.90;;;;;;5081093;28;20206;-69
2022/02/12 05:21:53;;;;;;;6.27;3.77;;;6.90;99.90;;;;;;5081718;28;20210;-69
2022/02/12 05:24:20;;;;;;;5.47;3.77;;;6.90;99.90;;;;;;5082306;28;20186;-69
2022/02/12 05:26:46;;;;;;;6.07;4.00;;;6.90;99.90;;;;;;5080694;28;20217;-69
2022/02/12 05:29:12;;;;;;;6.40;3.97;;;6.90;99.90;;;;;;5073592;28;20244;-69
2022/02/12 05:31:39;;;;;;;7.67;3.77;;;6.90;99.90;;;;;;5078990;28;20261;-69
2022/02/12 05:34:05;;;;;;;4.77;3.90;;;6.90;99.90;;;;;;5080310;28;20209;-68
2022/02/12 05:36:31;;;;;;;5.67;4.10;;;7.00;99.90;;;;;;5083538;28;20185;-69
2022/02/12 05:38:58;;;;;;;6.83;3.93;;;7.00;99.90;;;;;;5085665;28;20670;-69
2022/02/12 05:41:24;;;;;;;5.53;4.07;;;7.00;99.90;;;;;;5069958;28;20226;-69
2022/02/12 05:43:51;;;;;;;6.73;3.93;;;7.00;99.90;;;;;;5070136;28;20659;-69
2022/02/12 05:46:17;;;;;;;5.43;3.63;;;7.00;99.90;;;;;;5083617;28;20198;-69
2022/02/12 05:48:46;;;;;;;4.10;3.70;;;7.00;99.90;;;;;;5074494;28;20996;-69
2022/02/12 05:51:22;;;;;;;7.47;3.93;;;7.10;99.90;;;;;;5077609;28;20249;-69
2022/02/12 05:53:49;;;;;;;5.80;3.47;;;7.10;99.90;;;;;;5084519;28;20766;-69
2022/02/12 05:56:17;;;;;;;5.13;3.77;;;7.10;99.90;;;;;;5085031;28;20297;-69
2022/02/12 05:58:43;;;;;;;5.30;3.50;;;7.20;99.90;;;;;;5087047;28;20232;-69
2022/02/12 06:01:10;;;;;;;7.10;3.83;;;7.20;99.90;;;;;;5087385;28;20745;-69
2022/02/12 06:03:36;;;;;;;3.90;3.40;;;7.30;99.90;;;;;;5078197;28;20251;-69
2022/02/12 06:06:03;;;;;;;4.27;3.80;;;7.40;99.90;;;;;;5072854;28;20280;-69
2022/02/12 06:08:29;;;;;;;3.97;3.47;;;7.40;99.90;;;;;;5075713;28;20311;-69
2022/02/12 06:10:55;;;;;;;5.20;4.10;;;7.50;99.90;;;;;;5074179;28;20598;-69
2022/02/12 06:13:22;;;;;;;3.87;3.47;;;7.60;99.90;;;;;;5074681;28;20276;-69
2022/02/12 06:15:48;;;;;;;5.87;3.43;;;7.60;99.90;;;;;;5083409;28;20186;-69
2022/02/12 06:18:14;;;;;;;3.63;3.23;;;7.60;99.90;;;;;;5069379;28;20240;-69
2022/02/12 06:20:41;;;;;;;4.13;3.60;;;7.70;99.90;;;;;;5068789;28;20658;-69
2022/02/12 06:23:07;;;;;;;7.07;3.90;;;7.80;99.90;;;;;;5069028;28;20203;-69
2022/02/12 06:25:33;;;;;;;4.27;3.87;;;7.80;99.90;;;;;;5087700;28;20220;-69
2022/02/12 06:28:00;;;;;;;5.63;3.60;;;7.90;99.90;;;;;;5078832;28;20183;-69
2022/02/12 06:30:26;;;;;;;6.70;3.50;;;7.90;99.90;;;;;;5067162;28;20663;-69
2022/02/12 06:32:53;;;;;;;5.73;3.50;;;8.00;99.90;;;;;;5068747;28;20301;-68
2022/02/12 06:35:20;;;;;;;6.67;3.67;;;8.00;99.90;;;;;;5080916;28;20205;-69
2022/02/12 06:37:46;;;;;;;6.40;3.83;;;8.10;99.90;;;;;;5072297;28;20193;-69
2022/02/12 06:40:13;;;;;;;5.87;3.67;;;8.20;99.90;;;;;;5083565;28;20548;-69
2022/02/12 06:42:40;;;;;;;6.67;3.87;;;8.20;99.90;;;;;;5078253;28;20201;-69
2022/02/12 06:45:07;;;;;;;5.63;3.30;;;8.30;99.90;;;;;;5077932;28;20193;-69
2022/02/12 06:47:34;;;;;;;6.10;3.90;;;8.30;99.90;;;;;;5079838;28;20193;-69
2022/02/12 06:50:01;;;;;;;6.27;3.53;;;8.40;99.90;;;;;;5070168;28;20231;-69
2022/02/12 06:52:27;;;;;;;4.67;3.30;;;8.40;99.90;;;;;;5079321;28;20565;-69
2022/02/12 06:54:54;;;;;;;3.83;3.17;;;8.50;99.90;;;;;;5069954;28;20183;-69
2022/02/12 06:57:20;;;;;;;5.07;3.57;;;8.60;99.90;;;;;;5085816;28;20573;-69
2022/02/12 06:59:46;;;;;;;7.93;3.47;;;8.60;99.90;;;;;;5071348;28;20198;-69
2022/02/12 07:02:13;;;;;;;5.57;3.77;;;8.70;99.90;;;;;;5068582;28;20277;-69
2022/02/12 07:04:39;;;;;;;5.47;3.30;;;8.70;99.90;;;;;;5073436;28;20198;-69
2022/02/12 07:07:05;;;;;;;5.20;3.40;;;8.70;99.90;;;;;;5095881;28;21007;-69
2022/02/12 07:09:32;;;;;;;4.60;3.30;;;8.80;99.90;;;;;;5081973;28;20272;-69
2022/02/12 07:11:58;;;;;;;6.30;3.80;;;8.80;99.90;;;;;;5087415;28;20190;-69
2022/02/12 07:14:24;;;;;;;3.83;3.43;;;8.90;99.90;;;;;;5060974;28;20606;-69
2022/02/12 07:16:51;;;;;;;5.67;3.60;;;8.90;99.90;;;;;;5070747;28;20200;-69
2022/02/12 07:19:17;;;;;;;6.20;3.40;;;9.00;99.90;;;;;;5086421;28;20247;-69
2022/02/12 07:21:44;;;;;;;5.43;3.43;;;9.00;99.90;;;;;;5073609;28;20652;-70
2022/02/12 07:24:10;;;;;;;4.13;2.97;;;9.00;99.90;;;;;;5054539;28;20174;-70
2022/02/12 07:26:37;;;;;;;5.63;3.03;;;9.10;99.90;;;;;;5076659;28;20278;-69
2022/02/12 07:29:03;;;;;;;4.40;3.03;;;9.20;99.90;;;;;;5075329;28;20187;-69
2022/02/12 07:31:32;;;;;;;4.77;2.67;;;9.30;99.90;;;;;;5074243;28;20187;-69
2022/02/12 07:33:58;;;;;;;3.07;2.20;;;9.30;99.90;;;;;;5068506;28;20305;-68
2022/02/12 07:36:24;;;;;;;5.47;2.60;;;9.30;99.90;;;;;;5071724;28;20277;-70
2022/02/12 07:38:51;;;;;;;4.33;2.93;;;9.30;99.90;;;;;;5074119;28;20247;-69
2022/02/12 07:41:17;;;;;;;3.77;2.77;;;9.50;99.90;;;;;;5078144;28;20289;-69
2022/02/12 07:43:44;;;;;;;4.03;2.60;;;9.60;99.90;;;;;;5075728;28;20554;-69
2022/02/12 07:46:12;;;;;;;4.40;2.67;;;9.60;99.90;;;;;;5068376;28;20273;-69
2022/02/12 07:48:39;;;;;;;2.97;2.67;;;9.60;99.90;;;;;;5068637;28;20191;-69
2022/02/12 07:51:07;;;;;;;4.80;2.80;;;9.70;99.90;;;;;;5085633;28;20182;-69
2022/02/12 07:53:34;;;;;;;4.70;2.90;;;9.60;99.90;;;;;;5071797;28;21036;-70
2022/02/12 07:56:00;;;;;;;3.93;2.57;;;9.80;99.90;;;;;;5079531;28;20193;-69
2022/02/12 07:58:28;;;;;;;2.80;2.43;;;9.80;99.90;;;;;;5077623;28;20209;-69
2022/02/12 08:00:55;;;;;;;3.30;2.40;;;9.80;99.90;;;;;;5076215;28;20690;-69
2022/02/12 08:03:21;;;;;;;5.93;2.43;;;9.90;99.90;;;;;;5073573;28;20255;-69
2022/02/12 08:05:47;;;;;;;6.43;2.40;;;10.00;99.90;;;;;;5079518;28;20186;-69
2022/02/12 08:08:14;;;;;;;3.87;2.10;;;10.10;99.90;;;;;;5080443;28;20327;-70
2022/02/12 08:13:28;;;;;;;4.50;2.50;;;10.50;99.90;;;;;;5083646;28;20634;-69
2022/02/12 08:15:55;;;;;;;3.63;2.23;;;10.80;99.90;;;;;;5086256;28;20543;-69
2022/02/12 08:18:21;;;;;;;7.80;2.13;;;10.70;99.90;;;;;;5082204;28;20296;-69
2022/02/12 08:20:49;;;;;;;4.77;2.60;;;10.60;99.90;;;;;;5077939;28;20312;-69
2022/02/12 08:23:17;;;;;;;5.83;2.30;;;10.60;99.90;;;;;;5080014;28;20205;-69
2022/02/12 08:25:45;;;;;;;2.00;1.80;;;10.70;99.90;;;;;;5078186;28;20783;-70
2022/02/12 08:28:11;;;;;;;3.87;2.20;;;10.60;99.90;;;;;;5078437;28;20270;-69
2022/02/12 08:30:38;;;;;;;4.43;2.30;;;10.60;99.90;;;;;;5081640;28;20218;-69
2022/02/12 08:33:04;;;;;;;3.50;2.23;;;10.60;99.90;;;;;;5084339;28;20214;-69
2022/02/12 08:35:31;;;;;;;3.73;1.93;;;10.80;99.90;;;;;;5070895;28;20653;-69
2022/02/12 08:37:58;;;;;;;4.17;2.20;;;10.90;99.90;;;;;;5084510;28;20208;-69
2022/02/12 08:40:24;;;;;;;4.03;1.90;;;10.90;99.90;;;;;;5085476;28;20221;-70
2022/02/12 08:42:52;;;;;;;2.47;2.00;;;11.00;99.90;;;;;;5081157;28;20198;-70
2022/02/12 08:45:19;;;;;;;2.70;2.13;;;11.00;99.90;;;;;;5072599;28;20282;-69
2022/02/12 08:47:45;;;;;;;4.87;2.10;;;11.00;99.90;;;;;;5056107;28;20178;-70
2022/02/12 08:50:12;;;;;;;5.00;2.20;;;11.00;99.90;;;;;;5071706;28;20683;-69
2022/02/12 08:52:40;;;;;;;2.53;1.97;;;11.00;99.90;;;;;;5075484;28;20186;-69
2022/02/12 08:55:13;;;;;;;2.80;1.63;;;11.00;99.90;;;;;;5083441;28;20196;-69
2022/02/12 08:57:42;;;;;;;3.03;1.80;;;11.10;99.90;;;;;;5063829;28;20285;-69
2022/02/12 09:00:12;;;;;;;2.67;1.93;;;11.10;99.90;;;;;;5088423;28;20274;-69
2022/02/12 09:02:39;;;;;;;2.93;1.93;;;11.20;99.90;;;;;;5074002;28;20643;-69
2022/02/12 09:05:05;;;;;;;6.57;2.10;;;11.20;99.90;;;;;;5075638;28;20212;-68
2022/02/12 09:07:32;;;;;;;5.40;2.00;;;11.30;99.90;;;;;;5083355;28;20516;-68
2022/02/12 09:10:00;;;;;;;2.60;1.70;;;11.40;99.90;;;;;;5062628;28;20179;-69
2022/02/12 09:12:28;;;;;;;5.20;1.90;;;11.50;99.90;;;;;;5078989;28;20183;-69
2022/02/12 09:14:54;;;;;;;5.57;2.00;;;11.60;99.90;;;;;;5061179;28;20174;-68
2022/02/12 09:17:22;;;;;;;4.87;1.80;;;11.70;99.90;;;;;;5071711;28;20226;-69
2022/02/12 09:19:48;;;;;;;4.00;1.70;;;11.90;99.90;;;;;;5098554;28;20215;-69
2022/02/12 09:22:25;;;;;;;2.23;1.70;;;11.90;99.90;;;;;;5073612;28;20186;-69
2022/02/12 09:24:51;;;;;;;3.17;1.70;;;12.00;99.90;;;;;;5075926;28;20190;-70
2022/02/12 09:27:18;;;;;;;3.57;2.03;;;12.00;99.90;;;;;;5078239;28;20186;-70
2022/02/12 09:29:44;;;;;;;3.03;1.77;;;12.20;99.90;;;;;;5078802;28;20188;-69
2022/02/12 09:32:11;;;;;;;3.13;2.07;;;12.20;99.90;;;;;;5070178;28;20227;-69
2022/02/12 09:34:38;;;;;;;4.23;2.10;;;12.40;99.90;;;;;;5070463;28;20842;-69
2022/02/12 09:37:04;;;;;;;7.47;2.27;;;12.50;99.90;;;;;;5063203;28;20183;-69
2022/02/12 09:39:31;;;;;;;8.23;2.50;;;12.60;99.90;;;;;;5078698;28;20194;-69
2022/02/12 09:41:59;;;;;;;2.83;2.00;;;12.60;99.90;;;;;;5062196;28;20761;-69
2022/02/12 09:44:25;;;;;;;5.00;1.97;;;12.70;99.90;;;;;;5078912;28;20190;-69
2022/02/12 09:47:18;;;;;;;5.67;2.10;;;12.70;99.90;;;;;;5068015;28;20191;-69
2022/02/12 09:49:48;;;;;;;4.90;2.57;;;12.80;99.90;;;;;;5063683;28;20539;-69
2022/02/12 09:52:19;;;;;;;5.60;2.10;;;12.90;99.90;;;;;;5073962;28;20608;-69
2022/02/12 09:54:46;;;;;;;3.57;2.00;;;12.90;99.90;;;;;;5072928;28;20197;-69
2022/02/12 09:57:13;;;;;;;3.90;2.00;;;13.00;99.90;;;;;;5070578;28;20678;-69
2022/02/12 09:59:39;;;;;;;5.17;2.10;;;13.10;99.90;;;;;;5069600;28;20186;-68
2022/02/12 10:02:07;;;;;;;6.70;2.30;;;13.30;99.90;;;;;;5074492;28;20328;-68
2022/02/12 10:04:33;;;;;;;4.10;2.00;;;13.40;99.90;;;;;;5076690;28;20271;-69
2022/02/12 10:07:00;;;;;;;3.80;2.20;;;13.50;99.90;;;;;;5066318;28;20914;-68
2022/02/12 10:09:26;;;;;;;5.53;2.30;;;13.50;99.90;;;;;;5071569;28;20193;-69
2022/02/12 10:11:56;;;;;;;5.57;2.53;;;13.60;99.90;;;;;;5078892;28;20217;-68
2022/02/12 10:14:25;;;;;;;3.97;2.27;;;13.70;99.90;;;;;;5075205;28;20336;-68
2022/02/12 10:17:03;;;;;;;6.23;2.40;;;13.80;99.90;;;;;;5079635;28;20243;-68
2022/02/12 10:19:32;;;;;;;3.70;2.30;;;13.90;99.90;;;;;;5068910;28;20277;-68
2022/02/12 10:22:15;;;;;;;7.50;2.30;;;13.90;99.90;;;;;;5073440;28;20768;-68
2022/02/12 10:24:58;;;;;;;4.17;2.47;;;14.00;99.90;;;;;;5071236;28;20204;-68
2022/02/12 10:27:27;;;;;;;6.30;2.10;;;14.20;99.90;;;;;;5075712;28;20282;-69
2022/02/12 10:29:58;;;;;;;3.33;1.93;;;14.40;99.90;;;;;;5066868;28;20271;-68
2022/02/12 10:32:28;;;;;;;5.00;1.70;;;14.70;99.90;;;;;;5051314;28;20206;-69
2022/02/12 10:34:59;;;;;;;6.37;1.70;;;14.90;99.90;;;;;;5072433;28;20225;-69
2022/02/12 10:37:27;;;;;;;6.10;1.80;;;15.20;99.90;;;;;;5085539;28;20183;-67
2022/02/12 10:40:00;;;;;;;2.07;1.50;;;15.50;99.90;;;;;;5081273;28;20190;-68
2022/02/12 10:42:31;;;;;;;5.77;1.77;;;15.60;99.90;;;;;;5084674;28;20209;-68
2022/02/12 10:44:58;;;;;;;3.23;2.03;;;15.90;99.90;;;;;;5093005;28;20186;-68
2022/02/12 10:47:25;;;;;;;7.60;2.20;;;16.40;99.90;;;;;;5073602;28;20186;-68
2022/02/12 10:49:52;;;;;;;7.87;1.60;;;17.00;99.90;;;;;;5085984;28;20181;-68
2022/02/12 10:52:22;;;;;;;3.77;1.70;;;17.30;99.90;;;;;;5078043;28;20193;-68
2022/02/12 10:54:52;;;;;;;3.97;1.73;;;17.80;99.90;;;;;;5072724;28;20708;-69
2022/02/12 10:57:29;;;;;;;3.77;1.70;;;18.10;99.90;;;;;;5079171;28;20239;-68
2022/02/12 11:00:01;;;;;;;6.53;1.87;;;18.10;99.90;;;;;;5084161;28;20655;-68
2022/02/12 11:02:29;;;;;;;4.87;1.50;;;18.30;99.90;;;;;;5079350;28;20186;-68
2022/02/12 11:05:00;;;;;;;5.30;1.40;;;18.30;99.90;;;;;;5081632;28;20185;-69
2022/02/12 11:07:27;;;;;;;3.23;1.93;;;18.20;99.90;;;;;;5075499;28;20873;-68
2022/02/12 11:09:55;;;;;;;7.93;1.97;;;18.20;99.90;;;;;;5074855;28;20307;-68
2022/02/12 11:12:25;;;;;;;2.50;1.47;;;18.00;99.90;;;;;;5074619;28;20186;-68
2022/02/12 11:14:53;;;;;;;3.53;1.47;;;17.80;99.90;;;;;;5075082;28;20273;-69
2022/02/12 11:17:25;;;;;;;3.27;1.60;;;17.50;99.90;;;;;;5078010;28;20187;-67
2022/02/12 11:19:53;;;;;;;3.37;1.70;;;17.10;99.90;;;;;;5076695;28;20327;-69
2022/02/12 11:22:20;;;;;;;3.33;1.60;;;16.90;99.90;;;;;;5075308;28;20187;-68
2022/02/12 11:24:47;;;;;;;6.40;1.90;;;16.70;99.90;;;;;;5082104;28;20250;-69
2022/02/12 11:27:29;;;;;;;8.87;1.60;;;16.60;99.90;;;;;;5074507;28;20194;-68
2022/02/12 11:30:15;;;;;;;7.17;1.80;;;16.40;99.90;;;;;;5075624;28;20251;-68
2022/02/12 11:32:44;;;;;;;6.30;1.87;;;16.30;99.90;;;;;;5073422;28;20285;-68
2022/02/12 11:35:10;;;;;;;3.77;1.60;;;16.30;99.90;;;;;;5079685;28;20182;-67
2022/02/12 11:37:46;;;;;;;4.43;1.67;;;16.20;99.90;;;;;;5073774;28;20288;-67
2022/02/12 11:40:25;;;;;;;4.40;1.67;;;16.20;99.90;;;;;;5083790;28;20185;-68
2022/02/12 11:43:03;;;;;;;5.90;1.57;;;16.10;99.90;;;;;;5088647;28;20198;-68
2022/02/12 11:45:45;;;;;;;11.30;2.53;;;16.00;99.90;;;;;;5076316;28;20214;-68
2022/02/12 11:48:16;;;;;;;11.03;1.80;;;16.00;99.90;;;;;;5082298;28;20182;-67
2022/02/12 11:51:04;;;;;;;2.73;1.60;;;15.90;99.90;;;;;;5073408;28;20178;-68
2022/02/12 11:53:48;;;;;;;8.33;1.90;;;15.90;99.90;;;;;;5075659;28;20198;-67
2022/02/12 11:56:22;;;;;;;3.70;1.80;;;15.90;99.90;;;;;;5072195;28;20589;-68
2022/02/12 11:58:53;;;;;;;6.23;1.70;;;15.90;99.90;;;;;;5077990;28;20189;-68
2022/02/12 12:01:25;;;;;;;4.13;1.60;;;15.90;99.90;;;;;;5074490;28;20249;-67
2022/02/12 12:04:14;;;;;;;3.50;1.53;;;15.90;99.90;;;;;;5081887;28;20190;-68
2022/02/12 12:07:08;;;;;;;2.93;1.60;;;15.90;99.90;;;;;;5076101;28;20186;-67
2022/02/12 12:09:53;;;;;;;7.80;1.87;;;15.80;99.90;;;;;;5069565;28;20202;-67
2022/02/12 12:12:24;;;;;;;2.90;1.37;;;15.70;99.90;;;;;;5076063;28;20888;-67
2022/02/12 12:15:29;;;;;;;5.43;1.70;;;15.70;99.90;;;;;;5076277;28;20197;-68
2022/02/12 12:18:01;;;;;;;7.83;1.97;;;15.60;99.90;;;;;;5093714;28;20202;-67
2022/02/12 12:20:39;;;;;;;5.03;1.87;;;15.60;99.90;;;;;;5080025;28;20286;-67
2022/02/12 12:23:12;;;;;;;8.37;1.80;;;15.60;99.90;;;;;;5074387;28;20195;-68
2022/02/12 12:26:00;;;;;;;8.43;1.20;;;15.50;99.90;;;;;;5074180;28;20214;-68
2022/02/12 12:28:42;;;;;;;3.53;1.70;;;15.40;99.90;;;;;;5066111;28;20278;-68
2022/02/12 12:31:16;;;;;;;4.47;1.63;;;15.40;99.90;;;;;;5075476;28;20198;-68
2022/02/12 12:33:47;;;;;;;4.07;1.67;;;15.30;99.90;;;;;;5072348;28;20298;-67
2022/02/12 12:36:17;;;;;;;3.67;1.50;;;15.30;99.90;;;;;;5081418;28;20228;-68
2022/02/12 12:38:50;;;;;;;4.20;1.60;;;15.20;99.90;;;;;;5091514;28;20203;-68
2022/02/12 12:41:37;;;;;;;3.93;1.53;;;15.10;99.90;;;;;;5070672;28;20218;-68
2022/02/12 12:44:12;;;;;;;4.07;1.63;;;15.10;99.90;;;;;;5079624;28;20547;-68
2022/02/12 12:46:53;;;;;;;4.80;1.93;;;15.00;99.90;;;;;;5075466;28;20809;-68
2022/02/12 12:49:39;;;;;;;7.17;1.60;;;15.10;99.90;;;;;;5069882;28;20212;-67
2022/02/12 12:52:17;;;;;;;7.43;1.80;;;15.00;99.90;;;;;;5081331;28;20913;-68
2022/02/12 12:54:46;;;;;;;3.80;1.70;;;14.90;99.90;;;;;;5070159;28;20206;-68
2022/02/12 12:57:14;;;;;;;3.97;1.67;;;14.90;99.90;;;;;;5079524;28;20220;-68
2022/02/12 12:59:57;;;;;;;6.57;2.17;;;14.90;99.90;;;;;;5081176;28;20197;-68
2022/02/12 13:02:26;;;;;;;11.30;2.00;;;14.80;99.90;;;;;;5075575;28;20206;-67
2022/02/12 13:04:56;;;;;;;6.47;1.90;;;14.80;99.90;;;;;;5072836;28;20675;-68
2022/02/12 13:07:32;;;;;;;7.83;2.10;;;14.80;99.90;;;;;;5071328;28;20678;-68
2022/02/12 13:10:01;;;;;;;8.10;1.90;;;14.80;99.90;;;;;;5068069;28;20193;-68